ENHV/HVG METAR and TAF weather

Enter ICAO airport designator
Station Type Date Time Source
ENHV METAR 2019/07/17 18:50 UTC NOAA

ENHV 171850Z 30012KT 9999 -RA SCT016 BKN021 07/05 Q1012


Station Type Date Time Source
ENHV Decoded METAR 2019/07/17 18:50 UTC NOAA

Honningsvag / Valan, Norway (ENHV) 71-01N 025-59E 14M
Jul 17, 2019 - 02:50 PM EDT / 2019.07.17 1850 UTC
Wind: from the WNW (300 degrees) at 14 MPH (12 KT):0
Visibility: greater than 7 mile(s):0
Sky conditions: mostly cloudy
Weather: light rain
Temperature: 44 F (7 C)
Dew Point: 41 F (5 C)
Relative Humidity: 87%
Pressure (altimeter): 29.88 in. Hg (1012 hPa)
ob: ENHV 171850Z 30012KT 9999 -RA SCT016 BKN021 07/05 Q1012
cycle: 19

Station Type Date Time Source
ENHV TAF UTC NOAA

Error!

Example: see airport list